• METAR

    LHBP Budapest Liszt Ferenc repülőtér METAR

    LHBP 121900Z 31007KT 9999 FEW012 SCT068 OVC095 12/11 Q1017 NOSIG

    QNH légnyomás:1017hpa
    Hőmérséklet/temperature: 12°C
    Harmatpont/Dew Point Temp: 11°C

    LHDC Debreceni repülőtér METAR

    LHDC 121845Z AUTO VRB02KT CAVOK 17/06 Q1016

    QNH légnyomás:1016hpa
    Hőmérskélet/temperature: 17°C
    Harmatpont/Dew Point Temp: 6°C

    LHPR Győr-pér repülőtér METAR

    LHPR 121845Z AUTO 29023G37KT 260V320 9999 -SHRA OVC014 04/02 Q1021

    QNH légnyomás:1019hpa
    Hőmérskélet/temperature: 4°C
    Harmatpont/Dew Point Temp: 2°C

    lhsm Sármellék repülőtér METAR

    LHSM 121845Z AUTO 36019KT 9999 -SHRA FEW012 BKN035 06/04 Q1020 BECMG 4000 SHRA BKN010 OVC030

    QNH légnyomás:1019hpa
    Hőmérskélet/temperature: 6°C
    Harmatpont/Dew Point Temp: 4°C

    lhpp Pécs-pogány repülőtér METAR

    LHPP 121745Z 34011KT 9999 SCT030 OVC083 15/07 Q1015

    QNH légnyomás:1015hpa
    Hőmérskélet/temperature: 15°C
    Harmatpont/Dew Point Temp: 7°C

    LHKE Kecskemét repülőtér METAR

    LHKE 121845Z 32012KT CAVOK 14/09 Q1017 R12/01//95 NOSIG RMK BLU

    QNH légnyomás:1017hpa
    Hőmérskélet/temperature: 14°C
    Harmatpont/Dew Point Temp: 9°C

    LHSN Szolnok repülőtér METAR

    LHSN 121845Z 31014G23KT CAVOK 16/08 Q1016 NOSIG RMK BLU

    QNH légnyomás:1016hpa
    Hőmérskélet/temperature: 16°C
    Harmatpont/Dew Point Temp: 8°C

    LHUD szeged repülőtér METAR

    LHUD 032345Z 35004KT CAVOK 18/13 Q1019

    QNH légnyomás:1019hpa
    Hőmérskélet/temperature: 18°C
    Harmatpont/Dew Point Temp: 13°C

  • TÉRKÉPEK

    Felhőkép

    Széltérkép

    Hőtérkép

    radarkép

    map

    map

  • Műholdképek

    Magyarország műholdkép

    Europa műholdkép

    Europa szinoptikus térkép

  • ELTE ELŐREJELZÉS (2 NAP LHBP)

    2 napos légnyomás előrejelzés Budapest LHBP

    2 napos szél előrejelzés Budapest LHBP

    2 napos termik trigger előrejelzés Budapest LHBP

    2 napos felhőzet előrejelzés Budapest LHBP

    2 napos thermal index profile előrejelzés Budapest LHBP

    2 napos átlag emelés előrejelzés Budapest LHBP

    2 napos felhő alap előrejelzés Budapest LHBP

    2 napos hőmérséklet advekció előrejelzés Budapest LHBP

  • VILLÁMRADAR

  • ELŐREJELZÉS

  • WINDFINDER ELŐREJELZÉS

  • RIASZTÁS - VÉSZJELZÉS

Repülésmeteorológia, aktuális időjárási helyzet és előrejelzés

Repülésmeteorológia, várható időjárás jelentések, előrejelzések és riasztások. METAR, TAF adatok, aktuális időjárás helyzetek és térképek.

A meteorológia kialakulásában és fejlődésében kiemelt szerep jutott a repülésnek, illetve a repülés technikai fejlődésének. A repülésmeteorológia elsődlegesen a repülés biztonságát, másodlagosan a repülés gazdaságosságát hivatott szolgálni. Eleinte a katonai repülőgépeknek, később a polgári repülésnek, ma már a sportrepülő pilótáknak, és a mezőgazdasági pilótáknak is egyaránt szükségük van a naprakész meteorológiai információkra.

Repülésmeteorológia oldalunkon összegyűjtöttük a legnépszerűbb és legjobb időjárás oldalak hivatkozásait, hogy repülés előtt vagy akár közben minden fontos forrást egyszerűen és gyorsan megtalálj. Magyarország várható időjárása, légállapoti diagramok, termik előrejelzés, METAR adatok, vészjelzések és figyelmeztetések. A képernyő szélén közvetlenül pedig pozíciód aktuális időjárási paramétereit is megtalálod.

JOGI NYILATKOZAT

Az oldal használatával a látogató elfogadja az alábbi felhasználási feltételeket:

Az oldalon feltüntetett repülésmeteorológia információkat mindenki csak saját felelősségre használhatja. A feltüntetett külső forrásokból származó információk pontosságáért és tartalmáért, valamint az esetlegesen ebből adódó bármilyen káresemény kapcsán a FLYTIME.HU nem vállal felelősséget!